Time;durP1;ratioP1;P1;durP2;ratioP2;P2;SDS_P1;SDS_P2;PMS_P1;PMS_P2;Temp;Humidity;BMP_temperature;BMP_pressure;BME280_temperature;BME280_humidity;BME280_pressure;Samples;Min_cycle;Max_cycle;Signal;HPM_P1;HPM_P2
2022/07/24 00:00:53;;;;;;;;;;;28.10;45.10;;;;;;1585787;74;1140;-65
2022/07/24 00:02:55;;;;;;;;;;;28.10;45.20;;;;;;1591644;73;650;-65
2022/07/24 00:04:57;;;;;;;;;;;28.10;45.40;;;;;;1587939;73;1612;-66
2022/07/24 00:06:59;;;;;;;;;;;28.10;45.50;;;;;;1595942;73;743;-66
2022/07/24 00:09:00;;;;;;;;;;;28.10;45.40;;;;;;1591137;73;823;-67
2022/07/24 00:11:02;;;;;;;;;;;28.20;45.50;;;;;;1593581;74;1139;-67
2022/07/24 00:13:04;;;;;;;;;;;28.20;45.50;;;;;;1593052;73;748;-67
2022/07/24 00:15:07;;;;;;;;;;;28.20;45.40;;;;;;1589151;73;1931;-68
2022/07/24 00:17:08;;;;;;;;;;;28.20;45.30;;;;;;1592378;74;686;-66
2022/07/24 00:19:10;;;;;;;;;;;28.20;45.30;;;;;;1591276;73;774;-66
2022/07/24 00:21:12;;;;;;;;;;;28.20;45.30;;;;;;1593046;73;1142;-66
2022/07/24 00:23:14;;;;;;;;;;;28.20;45.40;;;;;;1591207;73;703;-65
2022/07/24 00:25:16;;;;;;;;;;;28.20;45.20;;;;;;1596763;73;768;-65
2022/07/24 00:27:18;;;;;;;;;;;28.20;45.30;;;;;;1593613;74;659;-66
2022/07/24 00:29:20;;;;;;;;;;;28.20;45.20;;;;;;1599530;73;650;-65
2022/07/24 00:31:22;;;;;;;;;;;28.20;45.30;;;;;;1593666;73;1720;-66
2022/07/24 00:33:23;;;;;;;;;;;28.20;45.30;;;;;;1589950;73;686;-65
2022/07/24 00:35:25;;;;;;;;;;;28.20;45.30;;;;;;1592947;73;1940;-66
2022/07/24 00:37:27;;;;;;;;;;;28.20;45.20;;;;;;1600372;74;690;-65
2022/07/24 00:39:29;;;;;;;;;;;28.20;45.20;;;;;;1601379;73;690;-66
2022/07/24 00:41:31;;;;;;;;;;;28.20;45.30;;;;;;1584211;71;2077;-67
2022/07/24 00:43:33;;;;;;;;;;;28.20;45.10;;;;;;1564134;74;1036;-67
2022/07/24 00:45:35;;;;;;;;;;;28.20;45.10;;;;;;1567049;75;1473;-68
2022/07/24 00:47:37;;;;;;;;;;;28.20;45.10;;;;;;1565116;74;676;-66
2022/07/24 00:49:38;;;;;;;;;;;28.20;45.20;;;;;;1572516;74;715;-66
2022/07/24 00:51:41;;;;;;;;;;;28.20;45.20;;;;;;1562197;75;1213;-66
2022/07/24 00:53:43;;;;;;;;;;;28.20;45.30;;;;;;1532738;75;716;-67
2022/07/24 00:55:45;;;;;;;;;;;28.20;45.20;;;;;;1538339;75;1912;-67
2022/07/24 00:57:48;;;;;;;;;;;28.20;45.20;;;;;;1539634;75;736;-66
2022/07/24 00:59:51;;;;;;;;;;;28.20;45.30;;;;;;1536422;75;1793;-70
2022/07/24 01:01:53;;;;;;;;;;;28.20;45.20;;;;;;1548761;75;1144;-67
2022/07/24 01:03:54;;;;;;;;;;;28.20;45.10;;;;;;1535653;75;703;-68
2022/07/24 01:05:56;;;;;;;;;;;28.20;45.20;;;;;;1540573;75;682;-67
2022/07/24 01:07:58;;;;;;;;;;;28.20;45.20;;;;;;1540161;75;731;-68
2022/07/24 01:10:00;;;;;;;;;;;28.20;45.10;;;;;;1553388;75;652;-67
2022/07/24 01:12:02;;;;;;;;;;;28.20;45.10;;;;;;1558163;74;1214;-66
2022/07/24 01:14:04;;;;;;;;;;;28.20;45.10;;;;;;1534442;75;1489;-66
2022/07/24 01:16:06;;;;;;;;;;;28.20;45.10;;;;;;1537790;75;1942;-66
2022/07/24 01:18:08;;;;;;;;;;;28.20;45.10;;;;;;1547140;75;659;-66
2022/07/24 01:20:11;;;;;;;;;;;28.20;45.20;;;;;;1537840;75;695;-67
2022/07/24 01:22:12;;;;;;;;;;;28.20;45.30;;;;;;1548146;75;1133;-67
2022/07/24 01:24:14;;;;;;;;;;;28.10;45.30;;;;;;1545043;75;683;-67
2022/07/24 01:26:16;;;;;;;;;;;28.20;45.30;;;;;;1540543;75;691;-68
2022/07/24 01:28:18;;;;;;;;;;;28.10;45.30;;;;;;1538616;75;1555;-69
2022/07/24 01:30:20;;;;;;;;;;;28.20;45.40;;;;;;1545029;75;735;-66
2022/07/24 01:32:22;;;;;;;;;;;28.20;45.50;;;;;;1537301;75;1150;-64
2022/07/24 01:34:24;;;;;;;;;;;28.20;45.40;;;;;;1546379;75;708;-69
2022/07/24 01:36:25;;;;;;;;;;;28.20;45.50;;;;;;1539423;75;1954;-67
2022/07/24 01:38:27;;;;;;;;;;;28.20;45.50;;;;;;1549641;75;672;-68
2022/07/24 01:40:29;;;;;;;;;;;28.20;45.40;;;;;;1546753;75;767;-68
2022/07/24 01:42:31;;;;;;;;;;;28.10;45.40;;;;;;1542540;75;1475;-69
2022/07/24 01:44:33;;;;;;;;;;;28.20;45.30;;;;;;1548193;75;700;-68
2022/07/24 01:46:35;;;;;;;;;;;28.20;45.40;;;;;;1551942;75;689;-69
2022/07/24 01:48:37;;;;;;;;;;;28.10;45.40;;;;;;1538326;75;664;-69
2022/07/24 01:50:39;;;;;;;;;;;28.20;45.30;;;;;;1536822;75;736;-68
2022/07/24 01:52:40;;;;;;;;;;;28.20;45.30;;;;;;1529797;75;1170;-68
2022/07/24 01:54:42;;;;;;;;;;;28.20;45.30;;;;;;1538768;75;1936;-68
2022/07/24 01:56:44;;;;;;;;;;;28.20;45.40;;;;;;1550065;75;1499;-68
2022/07/24 01:58:46;;;;;;;;;;;28.10;45.40;;;;;;1538922;75;720;-67
2022/07/24 02:00:48;;;;;;;;;;;28.20;45.30;;;;;;1539546;75;675;-68
2022/07/24 02:02:50;;;;;;;;;;;28.10;45.40;;;;;;1548881;75;866;-65
2022/07/24 02:04:52;;;;;;;;;;;28.20;45.40;;;;;;1545245;75;702;-67
2022/07/24 02:06:54;;;;;;;;;;;28.10;45.40;;;;;;1546576;75;681;-67
2022/07/24 02:08:55;;;;;;;;;;;28.20;45.40;;;;;;1547282;75;657;-67
2022/07/24 02:10:57;;;;;;;;;;;28.10;45.30;;;;;;1536457;75;1230;-68
2022/07/24 02:12:59;;;;;;;;;;;28.20;45.40;;;;;;1551217;75;767;-67
2022/07/24 02:15:01;;;;;;;;;;;28.20;45.40;;;;;;1551878;75;1940;-66
2022/07/24 02:17:03;;;;;;;;;;;28.20;45.30;;;;;;1549136;75;688;-67
2022/07/24 02:19:05;;;;;;;;;;;28.10;45.40;;;;;;1542068;75;724;-65
2022/07/24 02:21:07;;;;;;;;;;;28.20;45.20;;;;;;1544396;75;1152;-67
2022/07/24 02:23:09;;;;;;;;;;;28.20;45.30;;;;;;1533713;75;669;-67
2022/07/24 02:25:11;;;;;;;;;;;28.10;45.20;;;;;;1551347;75;1588;-67
2022/07/24 02:27:13;;;;;;;;;;;28.10;45.10;;;;;;1542806;75;765;-68
2022/07/24 02:29:14;;;;;;;;;;;28.10;45.10;;;;;;1546031;75;746;-67
2022/07/24 02:31:16;;;;;;;;;;;28.10;45.10;;;;;;1544219;75;1181;-65
2022/07/24 02:33:18;;;;;;;;;;;28.10;45.10;;;;;;1532318;75;709;-65
2022/07/24 02:35:20;;;;;;;;;;;28.20;45.20;;;;;;1540761;75;1937;-66
2022/07/24 02:37:22;;;;;;;;;;;28.10;45.20;;;;;;1532495;75;661;-66
2022/07/24 02:39:24;;;;;;;;;;;28.10;45.20;;;;;;1543641;75;1489;-66
2022/07/24 02:41:26;;;;;;;;;;;28.10;45.20;;;;;;1541706;74;1184;-68
2022/07/24 02:43:28;;;;;;;;;;;28.20;45.30;;;;;;1532368;75;795;-68
2022/07/24 02:45:30;;;;;;;;;;;28.20;45.20;;;;;;1539925;76;662;-66
2022/07/24 02:47:32;;;;;;;;;;;28.20;45.20;;;;;;1537340;75;1000;-68
2022/07/24 02:49:35;;;;;;;;;;;28.10;45.20;;;;;;1540794;75;712;-66
2022/07/24 02:51:37;;;;;;;;;;;28.10;45.20;;;;;;1539418;75;1205;-66
2022/07/24 02:53:39;;;;;;;;;;;28.10;45.20;;;;;;1547071;75;1479;-66
2022/07/24 02:55:41;;;;;;;;;;;28.20;45.30;;;;;;1532884;75;1941;-68
2022/07/24 02:57:42;;;;;;;;;;;28.10;45.20;;;;;;1535412;75;676;-66
2022/07/24 02:59:49;;;;;;;;;;;28.10;45.20;;;;;;1535750;75;703;-67
2022/07/24 03:01:48;;;;;;;;;;;28.20;45.20;;;;;;1536846;75;1413;-67
2022/07/24 03:03:50;;;;;;;;;;;28.20;45.20;;;;;;1543131;75;673;-68
2022/07/24 03:05:52;;;;;;;;;;;28.20;45.20;;;;;;1535565;75;718;-69
2022/07/24 03:07:53;;;;;;;;;;;28.10;45.30;;;;;;1552095;75;1570;-68
2022/07/24 03:09:55;;;;;;;;;;;28.10;45.30;;;;;;1546050;75;680;-69
2022/07/24 03:11:57;;;;;;;;;;;28.20;45.30;;;;;;1540308;75;1146;-68
2022/07/24 03:13:59;;;;;;;;;;;28.20;45.40;;;;;;1537578;75;729;-68
2022/07/24 03:16:01;;;;;;;;;;;28.10;45.30;;;;;;1548073;76;1939;-67
2022/07/24 03:18:03;;;;;;;;;;;28.10;45.30;;;;;;1551202;75;704;-68
2022/07/24 03:20:05;;;;;;;;;;;28.10;45.40;;;;;;1542618;75;1478;-67
2022/07/24 03:22:07;;;;;;;;;;;28.10;45.40;;;;;;1548438;75;1172;-66
2022/07/24 03:24:09;;;;;;;;;;;28.20;45.20;;;;;;1537807;75;677;-69
2022/07/24 03:26:11;;;;;;;;;;;28.10;45.10;;;;;;1533533;76;687;-67
2022/07/24 03:28:13;;;;;;;;;;;28.10;45.10;;;;;;1538758;75;688;-68
2022/07/24 03:30:15;;;;;;;;;;;28.10;45.10;;;;;;1546408;75;698;-68
2022/07/24 03:32:17;;;;;;;;;;;28.10;45.10;;;;;;1537029;75;1111;-68
2022/07/24 03:34:18;;;;;;;;;;;28.20;45.00;;;;;;1547382;75;1489;-68
2022/07/24 03:36:20;;;;;;;;;;;28.20;45.00;;;;;;1526548;75;1941;-67
2022/07/24 03:38:22;;;;;;;;;;;28.20;45.00;;;;;;1537924;75;718;-68
2022/07/24 03:40:24;;;;;;;;;;;28.10;45.00;;;;;;1543658;75;720;-69
2022/07/24 03:42:26;;;;;;;;;;;28.20;45.00;;;;;;1539322;75;1137;-70
2022/07/24 03:44:28;;;;;;;;;;;28.10;45.10;;;;;;1539892;75;810;-68
2022/07/24 03:46:30;;;;;;;;;;;28.10;45.00;;;;;;1539518;75;751;-67
2022/07/24 03:48:32;;;;;;;;;;;28.10;45.00;;;;;;1544174;75;1486;-68
2022/07/24 03:50:33;;;;;;;;;;;28.10;45.00;;;;;;1538435;75;657;-68
2022/07/24 03:52:35;;;;;;;;;;;28.10;45.00;;;;;;1533445;75;1208;-69
2022/07/24 03:54:37;;;;;;;;;;;28.10;44.90;;;;;;1548560;75;737;-71
2022/07/24 03:56:39;;;;;;;;;;;28.10;44.90;;;;;;1556561;75;1904;-68
2022/07/24 03:58:41;;;;;;;;;;;28.10;44.90;;;;;;1547699;75;563;-66
2022/07/24 04:00:43;;;;;;;;;;;28.10;45.00;;;;;;1531676;75;721;-66
2022/07/24 04:02:45;;;;;;;;;;;28.10;45.00;;;;;;1544801;75;1455;-66
2022/07/24 04:04:47;;;;;;;;;;;28.10;45.00;;;;;;1544641;75;626;-67
2022/07/24 04:06:48;;;;;;;;;;;28.10;45.10;;;;;;1541414;76;778;-67
2022/07/24 04:08:50;;;;;;;;;;;28.10;45.10;;;;;;1542629;75;729;-67
2022/07/24 04:10:56;;;;;;;;;;;28.10;45.10;;;;;;1512197;77;1162;-67
2022/07/24 04:12:56;;;;;;;;;;;28.20;45.20;;;;;;1543910;75;1453;-67
2022/07/24 04:14:58;;;;;;;;;;;28.10;45.10;;;;;;1546484;75;790;-67
2022/07/24 04:17:00;;;;;;;;;;;28.10;45.20;;;;;;1541912;75;1938;-66
2022/07/24 04:19:01;;;;;;;;;;;28.10;45.20;;;;;;1540295;75;742;-67
2022/07/24 04:21:03;;;;;;;;;;;28.20;45.10;;;;;;1536632;75;1155;-68
2022/07/24 04:23:05;;;;;;;;;;;28.20;45.00;;;;;;1502365;77;694;-66
2022/07/24 04:25:08;;;;;;;;;;;28.10;45.10;;;;;;1518751;77;697;-67
2022/07/24 04:27:10;;;;;;;;;;;28.20;45.00;;;;;;1516419;77;681;-68
2022/07/24 04:29:12;;;;;;;;;;;28.10;45.00;;;;;;1518172;77;656;-66
2022/07/24 04:31:13;;;;;;;;;;;28.10;44.90;;;;;;1541678;76;1471;-68
2022/07/24 04:33:15;;;;;;;;;;;28.10;44.90;;;;;;1541326;76;809;-67
2022/07/24 04:35:17;;;;;;;;;;;28.10;44.90;;;;;;1532657;76;684;-67
2022/07/24 04:37:19;;;;;;;;;;;28.20;44.90;;;;;;1531695;76;1945;-67
2022/07/24 04:39:21;;;;;;;;;;;28.10;44.80;;;;;;1532517;76;594;-67
2022/07/24 04:41:23;;;;;;;;;;;28.10;44.70;;;;;;1535557;76;1143;-68
2022/07/24 04:43:25;;;;;;;;;;;28.10;44.80;;;;;;1540760;76;738;-69
2022/07/24 04:45:27;;;;;;;;;;;28.10;44.70;;;;;;1541640;76;1506;-67
2022/07/24 04:47:29;;;;;;;;;;;28.10;44.70;;;;;;1546656;76;681;-66
2022/07/24 04:49:30;;;;;;;;;;;28.10;44.80;;;;;;1539511;76;681;-67
2022/07/24 04:51:32;;;;;;;;;;;28.10;44.80;;;;;;1532565;76;1225;-66
2022/07/24 04:53:34;;;;;;;;;;;28.10;44.80;;;;;;1542228;76;658;-68
2022/07/24 04:55:36;;;;;;;;;;;28.10;44.90;;;;;;1536754;76;689;-67
2022/07/24 04:57:38;;;;;;;;;;;28.10;44.70;;;;;;1541047;76;1945;-68
2022/07/24 04:59:40;;;;;;;;;;;28.10;44.70;;;;;;1530133;76;1473;-66
2022/07/24 05:01:42;;;;;;;;;;;28.10;44.70;;;;;;1556896;76;1156;-66
2022/07/24 05:03:44;;;;;;;;;;;28.10;44.80;;;;;;1536722;76;657;-67
2022/07/24 05:05:45;;;;;;;;;;;28.10;44.90;;;;;;1533711;76;688;-66
2022/07/24 05:07:47;;;;;;;;;;;28.10;44.90;;;;;;1538341;76;992;-68
2022/07/24 05:09:49;;;;;;;;;;;28.10;44.90;;;;;;1533747;76;663;-68
2022/07/24 05:11:51;;;;;;;;;;;28.10;44.70;;;;;;1539763;75;1141;-69
2022/07/24 05:13:53;;;;;;;;;;;28.10;44.70;;;;;;1531698;76;1487;-68
2022/07/24 05:15:55;;;;;;;;;;;28.10;44.80;;;;;;1531669;76;686;-67
2022/07/24 05:17:57;;;;;;;;;;;28.10;44.80;;;;;;1531153;76;578;-68
2022/07/24 05:19:59;;;;;;;;;;;28.10;44.70;;;;;;1540693;76;638;-66
2022/07/24 05:22:01;;;;;;;;;;;28.10;44.80;;;;;;1537142;76;1159;-67
2022/07/24 05:24:03;;;;;;;;;;;28.20;44.90;;;;;;1538957;75;695;-66
2022/07/24 05:26:05;;;;;;;;;;;28.10;44.70;;;;;;1538868;76;667;-66
2022/07/24 05:28:07;;;;;;;;;;;28.10;44.80;;;;;;1541675;75;1560;-67
2022/07/24 05:30:09;;;;;;;;;;;28.20;44.80;;;;;;1542285;76;758;-68
2022/07/24 05:32:11;;;;;;;;;;;28.20;44.80;;;;;;1516088;77;1111;-69
2022/07/24 05:34:13;;;;;;;;;;;28.20;44.90;;;;;;1523406;77;635;-65
2022/07/24 05:36:14;;;;;;;;;;;28.20;44.70;;;;;;1509974;77;1942;-66
2022/07/24 05:38:16;;;;;;;;;;;28.20;44.80;;;;;;1522066;77;718;-65
2022/07/24 05:40:18;;;;;;;;;;;28.20;44.70;;;;;;1512855;77;664;-66
2022/07/24 05:42:20;;;;;;;;;;;28.20;44.70;;;;;;1514798;77;1712;-66
2022/07/24 05:44:22;;;;;;;;;;;28.20;44.70;;;;;;1509343;77;785;-67
2022/07/24 05:46:24;;;;;;;;;;;28.20;44.70;;;;;;1544972;75;702;-70
2022/07/24 05:48:26;;;;;;;;;;;28.20;44.70;;;;;;1531253;75;700;-66
2022/07/24 05:50:28;;;;;;;;;;;28.20;44.60;;;;;;1513702;77;693;-66
2022/07/24 05:52:30;;;;;;;;;;;28.20;44.60;;;;;;1530038;75;1158;-66
2022/07/24 05:54:31;;;;;;;;;;;28.20;44.60;;;;;;1510303;75;702;-71
2022/07/24 05:56:33;;;;;;;;;;;28.20;44.60;;;;;;1512203;77;1927;-66
2022/07/24 05:58:35;;;;;;;;;;;28.20;44.70;;;;;;1527701;76;658;-67
2022/07/24 06:00:37;;;;;;;;;;;28.20;44.60;;;;;;1518371;77;693;-66
2022/07/24 06:02:39;;;;;;;;;;;28.20;44.60;;;;;;1534429;75;1186;-67
2022/07/24 06:04:42;;;;;;;;;;;28.20;44.60;;;;;;1550804;75;731;-67
2022/07/24 06:06:43;;;;;;;;;;;28.20;44.50;;;;;;1529460;75;791;-67
2022/07/24 06:08:45;;;;;;;;;;;28.20;44.60;;;;;;1537855;76;1469;-68
2022/07/24 06:10:47;;;;;;;;;;;28.20;44.60;;;;;;1541559;76;795;-67
2022/07/24 06:12:49;;;;;;;;;;;28.30;44.60;;;;;;1538943;76;1162;-66
2022/07/24 06:14:51;;;;;;;;;;;28.30;44.50;;;;;;1535314;75;656;-66
2022/07/24 06:16:53;;;;;;;;;;;28.30;44.60;;;;;;1541476;75;1936;-66
2022/07/24 06:18:55;;;;;;;;;;;28.30;44.60;;;;;;1522583;77;689;-69
2022/07/24 06:20:57;;;;;;;;;;;28.30;44.60;;;;;;1519667;75;1102;-68
2022/07/24 06:22:59;;;;;;;;;;;28.50;44.50;;;;;;1506885;77;1475;-66
2022/07/24 06:25:00;;;;;;;;;;;28.40;44.40;;;;;;1518538;76;686;-65
2022/07/24 06:27:04;;;;;;;;;;;28.30;44.40;;;;;;1550678;75;668;-66
2022/07/24 06:29:06;;;;;;;;;;;28.30;44.50;;;;;;1541796;75;953;-65
2022/07/24 06:31:08;;;;;;;;;;;28.30;44.60;;;;;;1548548;75;1244;-65
2022/07/24 06:33:10;;;;;;;;;;;28.20;44.70;;;;;;1525630;75;703;-65
2022/07/24 06:35:12;;;;;;;;;;;28.20;44.70;;;;;;1503215;76;746;-64
2022/07/24 06:37:14;;;;;;;;;;;28.20;44.70;;;;;;1501546;77;1920;-64
2022/07/24 06:39:15;;;;;;;;;;;28.20;44.80;;;;;;1501674;77;675;-65
2022/07/24 06:41:17;;;;;;;;;;;28.10;44.80;;;;;;1516180;73;2071;-65
2022/07/24 06:43:19;;;;;;;;;;;28.10;44.80;;;;;;1580949;73;649;-66
2022/07/24 06:45:21;;;;;;;;;;;28.10;44.90;;;;;;1561173;74;708;-67
2022/07/24 06:47:23;;;;;;;;;;;28.10;44.90;;;;;;1557113;75;647;-65
2022/07/24 06:49:25;;;;;;;;;;;28.20;45.00;;;;;;1554961;74;738;-66
2022/07/24 06:51:27;;;;;;;;;;;28.10;45.00;;;;;;1551638;74;1559;-68
2022/07/24 06:53:28;;;;;;;;;;;28.10;45.10;;;;;;1578471;73;659;-65
2022/07/24 06:55:30;;;;;;;;;;;28.20;45.10;;;;;;1578804;73;729;-65
2022/07/24 06:57:33;;;;;;;;;;;28.20;45.10;;;;;;1578380;73;1929;-65
2022/07/24 06:59:35;;;;;;;;;;;28.10;45.20;;;;;;1585875;75;676;-66
2022/07/24 07:01:37;;;;;;;;;;;28.10;45.20;;;;;;1581929;74;1161;-64
2022/07/24 07:03:39;;;;;;;;;;;28.10;45.20;;;;;;1576160;75;753;-64
2022/07/24 07:05:41;;;;;;;;;;;28.10;45.20;;;;;;1578825;74;1427;-65
2022/07/24 07:07:43;;;;;;;;;;;28.10;45.20;;;;;;1576863;73;811;-64
2022/07/24 07:09:45;;;;;;;;;;;28.10;45.20;;;;;;1575531;73;708;-66
2022/07/24 07:11:47;;;;;;;;;;;28.10;45.20;;;;;;1589151;73;1137;-65
2022/07/24 07:13:49;;;;;;;;;;;28.10;45.20;;;;;;1580502;75;794;-64
2022/07/24 07:15:51;;;;;;;;;;;28.10;45.10;;;;;;1574786;73;904;-64
2022/07/24 07:17:53;;;;;;;;;;;28.10;45.20;;;;;;1584444;75;1981;-65
2022/07/24 07:19:55;;;;;;;;;;;28.10;45.20;;;;;;1578134;73;1512;-67
2022/07/24 07:21:58;;;;;;;;;;;28.10;45.20;;;;;;1586630;75;1140;-65
2022/07/24 07:23:59;;;;;;;;;;;28.10;45.30;;;;;;1585320;75;684;-65
2022/07/24 07:26:01;;;;;;;;;;;28.10;45.20;;;;;;1587019;74;756;-68
2022/07/24 07:28:03;;;;;;;;;;;28.10;45.20;;;;;;1589199;73;705;-63
2022/07/24 07:30:06;;;;;;;;;;;28.10;45.20;;;;;;1589153;73;843;-64
2022/07/24 07:32:07;;;;;;;;;;;28.10;45.20;;;;;;1588360;73;1158;-68
2022/07/24 07:34:09;;;;;;;;;;;28.10;45.20;;;;;;1578581;75;1574;-66
2022/07/24 07:36:11;;;;;;;;;;;28.10;45.20;;;;;;1584618;73;678;-66
2022/07/24 07:38:13;;;;;;;;;;;28.10;45.20;;;;;;1588300;73;1917;-65
2022/07/24 07:40:15;;;;;;;;;;;28.10;45.20;;;;;;1588481;73;941;-65
2022/07/24 07:42:17;;;;;;;;;;;28.10;45.20;;;;;;1584580;73;1123;-64
2022/07/24 07:44:19;;;;;;;;;;;28.10;45.10;;;;;;1587300;73;689;-66
2022/07/24 07:46:21;;;;;;;;;;;28.00;45.10;;;;;;1578962;73;733;-67
2022/07/24 07:48:22;;;;;;;;;;;28.10;45.10;;;;;;1583402;73;1521;-65
2022/07/24 07:50:24;;;;;;;;;;;28.10;45.10;;;;;;1587481;73;711;-65
2022/07/24 07:52:26;;;;;;;;;;;28.10;45.10;;;;;;1588227;73;1150;-64
2022/07/24 07:54:28;;;;;;;;;;;28.10;45.00;;;;;;1589366;75;729;-65
2022/07/24 07:56:31;;;;;;;;;;;28.00;45.00;;;;;;1589466;73;718;-65
2022/07/24 07:58:33;;;;;;;;;;;28.00;45.00;;;;;;1588642;75;1907;-65
2022/07/24 08:00:35;;;;;;;;;;;28.00;45.00;;;;;;1588329;73;678;-64
2022/07/24 08:02:37;;;;;;;;;;;28.00;45.00;;;;;;1588197;73;1603;-65
2022/07/24 08:04:39;;;;;;;;;;;28.00;45.00;;;;;;1586077;73;633;-67
2022/07/24 08:06:41;;;;;;;;;;;28.00;45.00;;;;;;1579485;73;691;-67
2022/07/24 08:08:42;;;;;;;;;;;28.00;45.00;;;;;;1582783;73;781;-64
2022/07/24 08:10:44;;;;;;;;;;;28.00;45.00;;;;;;1578165;73;764;-63
2022/07/24 08:12:46;;;;;;;;;;;28.00;45.00;;;;;;1581116;73;1139;-65
2022/07/24 08:14:48;;;;;;;;;;;28.00;45.00;;;;;;1583191;73;747;-65
2022/07/24 08:16:50;;;;;;;;;;;28.00;45.00;;;;;;1586232;73;1655;-65
2022/07/24 08:18:52;;;;;;;;;;;28.00;45.00;;;;;;1580085;73;1938;-64
2022/07/24 08:20:54;;;;;;;;;;;28.00;44.90;;;;;;1576581;73;665;-64
2022/07/24 08:22:55;;;;;;;;;;;28.00;45.10;;;;;;1578323;73;1071;-64
2022/07/24 08:24:57;;;;;;;;;;;28.20;45.10;;;;;;1574442;73;716;-74
2022/07/24 08:26:59;;;;;;;;;;;28.20;45.20;;;;;;1573913;73;726;-66
2022/07/24 08:29:01;;;;;;;;;;;28.20;45.00;;;;;;1578316;73;741;-67
2022/07/24 08:31:03;;;;;;;;;;;28.20;44.90;;;;;;1582023;73;1647;-64
2022/07/24 08:33:05;;;;;;;;;;;28.40;44.60;;;;;;1582485;73;1088;-68
2022/07/24 08:35:07;;;;;;;;;;;28.40;44.60;;;;;;1585797;73;726;-69
2022/07/24 08:37:09;;;;;;;;;;;28.30;44.70;;;;;;1589431;73;731;-66
2022/07/24 08:39:11;;;;;;;;;;;28.40;44.70;;;;;;1589245;73;1934;-67
2022/07/24 08:41:13;;;;;;;;;;;28.40;44.60;;;;;;1604995;72;1150;-63
2022/07/24 08:43:15;;;;;;;;;;;28.40;44.60;;;;;;1596631;73;783;-66
2022/07/24 08:45:17;;;;;;;;;;;28.50;44.50;;;;;;1618758;72;1536;-66
2022/07/24 08:47:18;;;;;;;;;;;28.50;44.30;;;;;;1614044;72;701;-65
2022/07/24 08:49:20;;;;;;;;;;;28.50;44.10;;;;;;1616522;73;772;-66
2022/07/24 08:51:22;;;;;;;;;;;28.50;44.20;;;;;;1620804;72;1151;-66
2022/07/24 08:53:24;;;;;;;;;;;28.50;44.20;;;;;;1620704;72;681;-67
2022/07/24 08:55:26;;;;;;;;;;;28.50;44.10;;;;;;1614396;72;675;-66
2022/07/24 08:57:28;;;;;;;;;;;28.60;44.10;;;;;;1617160;72;1920;-67
2022/07/24 08:59:30;;;;;;;;;;;28.60;43.90;;;;;;1619192;72;1860;-66
2022/07/24 09:01:32;;;;;;;;;;;28.70;43.90;;;;;;1608994;72;1130;-66
2022/07/24 09:03:41;;;;;;;;;;;28.60;43.80;;;;;;1619805;73;680;-66
2022/07/24 09:05:54;;;;;;;;;;;28.70;43.70;;;;;;1595089;73;1834;-67
2022/07/24 09:08:11;;;;;;;;;;;28.70;43.60;;;;;;1611432;73;648;-66
2022/07/24 09:10:14;;;;;;;;;;;28.70;43.60;;;;;;1596645;73;699;-66
2022/07/24 09:12:16;;;;;;;;;;;28.70;43.60;;;;;;1608369;73;1552;-64
2022/07/24 09:14:30;;;;;;;;;;;28.70;43.50;;;;;;1611331;73;752;-67
2022/07/24 09:16:33;;;;;;;;;;;28.60;43.70;;;;;;1606898;73;696;-66
2022/07/24 09:18:35;;;;;;;;;;;28.70;43.70;;;;;;1611482;72;1928;-63
2022/07/24 09:20:38;;;;;;;;;;;28.70;43.60;;;;;;1613673;73;698;-65
2022/07/24 09:22:40;;;;;;;;;;;28.70;43.40;;;;;;1619538;73;1114;-66
2022/07/24 09:24:42;;;;;;;;;;;28.80;43.50;;;;;;1617741;73;691;-64
2022/07/24 09:26:51;;;;;;;;;;;28.70;43.30;;;;;;1618698;73;1541;-67
2022/07/24 09:28:54;;;;;;;;;;;28.70;43.40;;;;;;1610503;73;781;-68
2022/07/24 09:30:56;;;;;;;;;;;28.60;42.90;;;;;;1613544;73;744;-68
2022/07/24 09:32:59;;;;;;;;;;;28.70;43.40;;;;;;1586306;74;1175;-68
2022/07/24 09:35:01;;;;;;;;;;;28.80;43.20;;;;;;1611166;73;800;-71
2022/07/24 09:37:06;;;;;;;;;;;28.70;41.90;;;;;;1604908;73;686;-66
2022/07/24 09:39:08;;;;;;;;;;;28.80;42.90;;;;;;1601938;73;1954;-68
2022/07/24 09:41:10;;;;;;;;;;;28.70;42.50;;;;;;1609378;73;1357;-67
2022/07/24 09:43:12;;;;;;;;;;;28.70;42.60;;;;;;1610157;73;805;-68
2022/07/24 09:45:15;;;;;;;;;;;28.70;42.00;;;;;;1621470;73;706;-69
2022/07/24 09:47:16;;;;;;;;;;;28.70;42.10;;;;;;1621819;73;679;-72
2022/07/24 09:49:20;;;;;;;;;;;28.60;42.60;;;;;;1613171;73;758;-68
2022/07/24 09:51:22;;;;;;;;;;;28.60;42.70;;;;;;1610029;73;1139;-68
2022/07/24 09:53:25;;;;;;;;;;;28.80;41.90;;;;;;1619325;73;703;-67
2022/07/24 09:55:27;;;;;;;;;;;28.80;42.60;;;;;;1618594;73;1562;-67
2022/07/24 09:57:29;;;;;;;;;;;28.80;42.60;;;;;;1612313;73;712;-68
2022/07/24 09:59:31;;;;;;;;;;;28.80;42.50;;;;;;1606340;73;1941;-67
2022/07/24 10:01:33;;;;;;;;;;;28.80;42.50;;;;;;1598557;73;1192;-68
2022/07/24 10:03:38;;;;;;;;;;;28.80;42.40;;;;;;1605574;73;714;-67
2022/07/24 10:05:40;;;;;;;;;;;28.80;42.40;;;;;;1602936;73;790;-68
2022/07/24 10:07:42;;;;;;;;;;;28.90;42.30;;;;;;1602827;73;758;-65
2022/07/24 10:09:45;;;;;;;;;;;28.80;42.30;;;;;;1606930;73;1622;-68
2022/07/24 10:11:46;;;;;;;;;;;28.90;42.20;;;;;;1600787;73;1147;-69
2022/07/24 10:13:48;;;;;;;;;;;28.90;42.30;;;;;;1598643;73;719;-69
2022/07/24 10:16:09;;;;;;;;;;;28.80;42.20;;;;;;1602286;73;758;-69
2022/07/24 10:18:16;;;;;;;;;;;28.90;42.30;;;;;;1600258;72;1917;-67
2022/07/24 10:20:20;;;;;;;;;;;28.90;42.20;;;;;;1596206;73;770;-68
2022/07/24 10:22:23;;;;;;;;;;;28.90;41.90;;;;;;1600430;73;1642;-67
2022/07/24 10:24:35;;;;;;;;;;;28.90;41.90;;;;;;1602771;73;776;-67
2022/07/24 10:26:37;;;;;;;;;;;28.80;42.00;;;;;;1605512;73;1848;-69
2022/07/24 10:28:43;;;;;;;;;;;28.80;42.00;;;;;;1605948;73;715;-68
2022/07/24 10:30:44;;;;;;;;;;;28.80;42.00;;;;;;1601423;73;792;-68
2022/07/24 10:32:46;;;;;;;;;;;28.80;41.90;;;;;;1602529;73;1159;-67
2022/07/24 10:34:56;;;;;;;;;;;28.90;41.90;;;;;;1595179;73;699;-68
2022/07/24 10:37:19;;;;;;;;;;;28.90;41.70;;;;;;1608498;73;1588;-70
2022/07/24 10:39:22;;;;;;;;;;;28.80;40.90;;;;;;1601542;73;1913;-66
2022/07/24 10:41:26;;;;;;;;;;;28.70;41.50;;;;;;1603904;73;1140;-68
2022/07/24 10:43:27;;;;;;;;;;;28.80;41.60;;;;;;1599397;73;756;-68
2022/07/24 10:45:30;;;;;;;;;;;28.90;41.60;;;;;;1611113;73;762;-67
2022/07/24 10:47:32;;;;;;;;;;;28.80;41.60;;;;;;1595809;73;685;-67
2022/07/24 10:49:38;;;;;;;;;;;28.90;41.50;;;;;;1606306;72;709;-67
2022/07/24 10:51:42;;;;;;;;;;;28.90;40.60;;;;;;1598793;73;1979;-68
2022/07/24 10:53:45;;;;;;;;;;;28.80;40.50;;;;;;1595744;73;1973;-67
2022/07/24 10:55:47;;;;;;;;;;;28.90;41.40;;;;;;1596165;73;716;-67
2022/07/24 10:57:49;;;;;;;;;;;28.80;41.30;;;;;;1596212;73;740;-70
2022/07/24 10:59:51;;;;;;;;;;;28.80;41.20;;;;;;1598811;73;1921;-67
2022/07/24 11:01:53;;;;;;;;;;;28.80;40.50;;;;;;1601979;73;1170;-67
2022/07/24 11:03:56;;;;;;;;;;;28.80;41.00;;;;;;1598157;73;727;-68
2022/07/24 11:06:05;;;;;;;;;;;28.80;40.20;;;;;;1596482;73;1681;-68
2022/07/24 11:08:18;;;;;;;;;;;28.80;40.90;;;;;;1607663;73;695;-67
2022/07/24 11:10:20;;;;;;;;;;;28.80;40.90;;;;;;1600567;73;691;-69
2022/07/24 11:12:28;;;;;;;;;;;28.90;40.70;;;;;;1580139;74;1150;-67
2022/07/24 11:14:41;;;;;;;;;;;28.80;39.80;;;;;;1603664;73;689;-67
2022/07/24 11:16:42;;;;;;;;;;;28.80;40.20;;;;;;1605978;73;726;-67
2022/07/24 11:18:49;;;;;;;;;;;28.70;40.20;;;;;;1606281;73;1937;-68
2022/07/24 11:20:51;;;;;;;;;;;28.80;40.10;;;;;;1597344;73;730;-67
2022/07/24 11:22:53;;;;;;;;;;;28.70;40.60;;;;;;1582283;74;1118;-68
2022/07/24 11:25:00;;;;;;;;;;;28.70;40.70;;;;;;1595132;73;750;-68
2022/07/24 11:27:05;;;;;;;;;;;28.70;39.70;;;;;;1602354;73;1695;-70
2022/07/24 11:29:11;;;;;;;;;;;28.70;40.50;;;;;;1604365;73;691;-67
2022/07/24 11:31:13;;;;;;;;;;;28.80;39.90;;;;;;1592786;73;1154;-68
2022/07/24 11:33:17;;;;;;;;;;;28.70;40.30;;;;;;1607757;73;1556;-67
2022/07/24 11:35:20;;;;;;;;;;;28.70;40.20;;;;;;1603865;73;977;-67
2022/07/24 11:37:24;;;;;;;;;;;28.80;40.40;;;;;;1598397;73;2031;-70
2022/07/24 11:39:29;;;;;;;;;;;28.80;40.40;;;;;;1610874;73;1923;-68
2022/07/24 11:41:33;;;;;;;;;;;28.70;38.40;;;;;;1605067;73;1153;-68
2022/07/24 11:43:35;;;;;;;;;;;28.70;40.10;;;;;;1603170;73;1670;-69
2022/07/24 11:45:37;;;;;;;;;;;28.80;40.10;;;;;;1610669;73;801;-67
2022/07/24 11:47:39;;;;;;;;;;;28.80;40.20;;;;;;1611993;73;1578;-67
2022/07/24 11:49:44;;;;;;;;;;;28.80;40.20;;;;;;1604590;73;697;-69
2022/07/24 11:51:47;;;;;;;;;;;28.70;40.30;;;;;;1599080;73;1151;-67
2022/07/24 11:53:48;;;;;;;;;;;28.70;40.30;;;;;;1599566;73;904;-69
2022/07/24 11:55:50;;;;;;;;;;;28.70;39.90;;;;;;1595390;73;774;-67
2022/07/24 11:57:53;;;;;;;;;;;28.70;40.20;;;;;;1577742;74;1060;-68
2022/07/24 11:59:58;;;;;;;;;;;28.80;40.20;;;;;;1599069;73;1949;-67
2022/07/24 12:02:03;;;;;;;;;;;28.70;40.00;;;;;;1602829;73;1560;-67
2022/07/24 12:04:05;;;;;;;;;;;28.70;40.00;;;;;;1602949;73;839;-67
2022/07/24 12:06:09;;;;;;;;;;;28.70;40.20;;;;;;1602038;73;741;-65
2022/07/24 12:08:17;;;;;;;;;;;28.60;40.30;;;;;;1597563;73;1845;-70
2022/07/24 12:10:20;;;;;;;;;;;28.60;40.50;;;;;;1603822;73;662;-69